sensor_id;sensor_type;location;lat;lon;timestamp;P1;durP1;ratioP1;P2;durP2;ratioP2
21297;SDS011;10808;48.010;11.326;2023-07-31T00:00:37;2.67;;;1.80;;
21297;SDS011;10808;48.010;11.326;2023-07-31T00:03:03;3.40;;;2.00;;
21297;SDS011;10808;48.010;11.326;2023-07-31T00:05:29;2.95;;;2.00;;
21297;SDS011;10808;48.010;11.326;2023-07-31T00:07:55;3.03;;;1.80;;
21297;SDS011;10808;48.010;11.326;2023-07-31T00:10:21;3.65;;;2.15;;
21297;SDS011;10808;48.010;11.326;2023-07-31T00:12:47;3.83;;;1.90;;
21297;SDS011;10808;48.010;11.326;2023-07-31T00:15:13;6.10;;;2.30;;
21297;SDS011;10808;48.010;11.326;2023-07-31T00:17:40;7.10;;;2.00;;
21297;SDS011;10808;48.010;11.326;2023-07-31T00:20:06;3.78;;;2.20;;
21297;SDS011;10808;48.010;11.326;2023-07-31T00:22:32;3.35;;;2.15;;
21297;SDS011;10808;48.010;11.326;2023-07-31T00:24:58;3.28;;;2.00;;
21297;SDS011;10808;48.010;11.326;2023-07-31T00:27:25;4.15;;;2.00;;
21297;SDS011;10808;48.010;11.326;2023-07-31T00:29:51;4.00;;;2.03;;
21297;SDS011;10808;48.010;11.326;2023-07-31T00:32:17;2.67;;;2.05;;
21297;SDS011;10808;48.010;11.326;2023-07-31T00:34:43;4.13;;;2.10;;
21297;SDS011;10808;48.010;11.326;2023-07-31T00:37:09;4.43;;;2.35;;
21297;SDS011;10808;48.010;11.326;2023-07-31T00:39:35;3.67;;;2.10;;
21297;SDS011;10808;48.010;11.326;2023-07-31T00:42:01;3.33;;;2.00;;
21297;SDS011;10808;48.010;11.326;2023-07-31T00:44:27;2.72;;;2.03;;
21297;SDS011;10808;48.010;11.326;2023-07-31T00:46:54;3.22;;;1.90;;
21297;SDS011;10808;48.010;11.326;2023-07-31T00:49:22;5.03;;;2.30;;
21297;SDS011;10808;48.010;11.326;2023-07-31T00:51:48;3.47;;;2.00;;
21297;SDS011;10808;48.010;11.326;2023-07-31T00:54:14;3.13;;;1.93;;
21297;SDS011;10808;48.010;11.326;2023-07-31T00:56:40;3.63;;;2.10;;
21297;SDS011;10808;48.010;11.326;2023-07-31T00:59:10;2.88;;;1.88;;
21297;SDS011;10808;48.010;11.326;2023-07-31T01:01:36;5.28;;;2.25;;
21297;SDS011;10808;48.010;11.326;2023-07-31T01:04:02;3.50;;;1.92;;
21297;SDS011;10808;48.010;11.326;2023-07-31T01:09:17;4.28;;;2.20;;
21297;SDS011;10808;48.010;11.326;2023-07-31T01:11:54;5.82;;;2.35;;
21297;SDS011;10808;48.010;11.326;2023-07-31T01:14:25;3.83;;;2.10;;
21297;SDS011;10808;48.010;11.326;2023-07-31T01:16:51;4.68;;;2.35;;
21297;SDS011;10808;48.010;11.326;2023-07-31T01:19:18;4.15;;;2.20;;
21297;SDS011;10808;48.010;11.326;2023-07-31T01:27:44;2.70;;;2.20;;
21297;SDS011;10808;48.010;11.326;2023-07-31T01:30:32;5.97;;;2.17;;
21297;SDS011;10808;48.010;11.326;2023-07-31T01:33:01;3.80;;;2.22;;
21297;SDS011;10808;48.010;11.326;2023-07-31T01:35:33;5.15;;;2.33;;
21297;SDS011;10808;48.010;11.326;2023-07-31T01:38:00;3.75;;;2.20;;
21297;SDS011;10808;48.010;11.326;2023-07-31T01:40:26;3.72;;;1.98;;
21297;SDS011;10808;48.010;11.326;2023-07-31T01:42:52;4.05;;;2.30;;
21297;SDS011;10808;48.010;11.326;2023-07-31T01:45:18;2.88;;;2.20;;
21297;SDS011;10808;48.010;11.326;2023-07-31T01:47:44;4.72;;;1.90;;
21297;SDS011;10808;48.010;11.326;2023-07-31T01:50:10;4.07;;;2.30;;
21297;SDS011;10808;48.010;11.326;2023-07-31T01:52:36;3.37;;;2.10;;
21297;SDS011;10808;48.010;11.326;2023-07-31T01:55:03;4.63;;;2.10;;
21297;SDS011;10808;48.010;11.326;2023-07-31T01:57:29;2.78;;;1.92;;
21297;SDS011;10808;48.010;11.326;2023-07-31T01:59:55;3.65;;;2.08;;
21297;SDS011;10808;48.010;11.326;2023-07-31T02:02:21;2.92;;;2.10;;
21297;SDS011;10808;48.010;11.326;2023-07-31T02:04:48;3.28;;;2.00;;
21297;SDS011;10808;48.010;11.326;2023-07-31T02:07:14;3.55;;;2.20;;
21297;SDS011;10808;48.010;11.326;2023-07-31T02:09:41;3.50;;;2.30;;
21297;SDS011;10808;48.010;11.326;2023-07-31T02:12:07;3.63;;;2.40;;
21297;SDS011;10808;48.010;11.326;2023-07-31T02:14:36;3.25;;;2.30;;
21297;SDS011;10808;48.010;11.326;2023-07-31T02:17:02;3.10;;;2.20;;
21297;SDS011;10808;48.010;11.326;2023-07-31T02:19:28;4.88;;;2.50;;
21297;SDS011;10808;48.010;11.326;2023-07-31T02:21:54;3.88;;;2.30;;
21297;SDS011;10808;48.010;11.326;2023-07-31T02:24:20;3.53;;;2.50;;
21297;SDS011;10808;48.010;11.326;2023-07-31T02:26:46;3.95;;;2.40;;
21297;SDS011;10808;48.010;11.326;2023-07-31T02:29:12;3.97;;;2.08;;
21297;SDS011;10808;48.010;11.326;2023-07-31T02:31:38;3.40;;;2.20;;
21297;SDS011;10808;48.010;11.326;2023-07-31T02:34:04;2.70;;;2.08;;
21297;SDS011;10808;48.010;11.326;2023-07-31T02:36:30;3.85;;;2.50;;
21297;SDS011;10808;48.010;11.326;2023-07-31T02:38:57;3.42;;;2.10;;
21297;SDS011;10808;48.010;11.326;2023-07-31T02:41:23;3.55;;;2.35;;
21297;SDS011;10808;48.010;11.326;2023-07-31T02:43:49;4.35;;;2.47;;
21297;SDS011;10808;48.010;11.326;2023-07-31T02:46:15;4.50;;;2.42;;
21297;SDS011;10808;48.010;11.326;2023-07-31T02:48:41;4.82;;;2.10;;
21297;SDS011;10808;48.010;11.326;2023-07-31T02:51:07;3.45;;;2.15;;
21297;SDS011;10808;48.010;11.326;2023-07-31T02:53:33;4.57;;;2.10;;
21297;SDS011;10808;48.010;11.326;2023-07-31T02:55:59;4.22;;;2.28;;
21297;SDS011;10808;48.010;11.326;2023-07-31T02:58:25;3.80;;;2.40;;
21297;SDS011;10808;48.010;11.326;2023-07-31T03:00:51;4.47;;;2.30;;
21297;SDS011;10808;48.010;11.326;2023-07-31T03:03:17;4.15;;;2.30;;
21297;SDS011;10808;48.010;11.326;2023-07-31T03:05:43;5.30;;;2.40;;
21297;SDS011;10808;48.010;11.326;2023-07-31T03:08:09;6.03;;;2.60;;
21297;SDS011;10808;48.010;11.326;2023-07-31T03:10:35;5.25;;;2.45;;
21297;SDS011;10808;48.010;11.326;2023-07-31T03:13:01;4.00;;;2.45;;
21297;SDS011;10808;48.010;11.326;2023-07-31T03:15:27;4.43;;;2.50;;
21297;SDS011;10808;48.010;11.326;2023-07-31T03:17:53;3.22;;;2.33;;
21297;SDS011;10808;48.010;11.326;2023-07-31T03:20:19;3.33;;;2.20;;
21297;SDS011;10808;48.010;11.326;2023-07-31T03:22:45;3.38;;;2.40;;
21297;SDS011;10808;48.010;11.326;2023-07-31T03:25:11;3.83;;;2.47;;
21297;SDS011;10808;48.010;11.326;2023-07-31T03:27:38;3.70;;;2.38;;
21297;SDS011;10808;48.010;11.326;2023-07-31T03:30:04;6.15;;;2.38;;
21297;SDS011;10808;48.010;11.326;2023-07-31T03:32:30;4.25;;;2.50;;
21297;SDS011;10808;48.010;11.326;2023-07-31T03:34:57;5.07;;;2.58;;
21297;SDS011;10808;48.010;11.326;2023-07-31T03:37:23;3.60;;;2.28;;
21297;SDS011;10808;48.010;11.326;2023-07-31T03:39:49;6.15;;;2.42;;
21297;SDS011;10808;48.010;11.326;2023-07-31T03:42:15;5.32;;;2.60;;
21297;SDS011;10808;48.010;11.326;2023-07-31T03:44:41;5.18;;;2.60;;
21297;SDS011;10808;48.010;11.326;2023-07-31T03:47:07;4.65;;;2.40;;
21297;SDS011;10808;48.010;11.326;2023-07-31T03:49:33;5.30;;;2.72;;
21297;SDS011;10808;48.010;11.326;2023-07-31T03:51:59;4.70;;;2.58;;
21297;SDS011;10808;48.010;11.326;2023-07-31T03:54:25;5.40;;;2.35;;
21297;SDS011;10808;48.010;11.326;2023-07-31T03:56:51;3.00;;;2.38;;
21297;SDS011;10808;48.010;11.326;2023-07-31T03:59:17;3.10;;;2.58;;
21297;SDS011;10808;48.010;11.326;2023-07-31T04:01:43;4.13;;;2.58;;
21297;SDS011;10808;48.010;11.326;2023-07-31T04:04:09;5.47;;;2.60;;
21297;SDS011;10808;48.010;11.326;2023-07-31T04:06:35;2.75;;;2.15;;
21297;SDS011;10808;48.010;11.326;2023-07-31T04:09:02;3.20;;;2.33;;
21297;SDS011;10808;48.010;11.326;2023-07-31T04:11:28;3.15;;;2.60;;
21297;SDS011;10808;48.010;11.326;2023-07-31T04:13:54;3.17;;;2.45;;
21297;SDS011;10808;48.010;11.326;2023-07-31T04:16:20;5.60;;;2.42;;
21297;SDS011;10808;48.010;11.326;2023-07-31T04:18:46;5.72;;;2.60;;
21297;SDS011;10808;48.010;11.326;2023-07-31T04:21:12;3.63;;;2.63;;
21297;SDS011;10808;48.010;11.326;2023-07-31T04:23:38;3.97;;;2.67;;
21297;SDS011;10808;48.010;11.326;2023-07-31T04:26:04;5.10;;;2.58;;
21297;SDS011;10808;48.010;11.326;2023-07-31T04:28:30;5.70;;;2.78;;
21297;SDS011;10808;48.010;11.326;2023-07-31T04:30:57;4.13;;;2.63;;
21297;SDS011;10808;48.010;11.326;2023-07-31T04:33:23;4.25;;;2.60;;
21297;SDS011;10808;48.010;11.326;2023-07-31T04:35:50;5.40;;;2.70;;
21297;SDS011;10808;48.010;11.326;2023-07-31T04:38:19;3.53;;;2.45;;
21297;SDS011;10808;48.010;11.326;2023-07-31T04:40:46;4.65;;;2.70;;
21297;SDS011;10808;48.010;11.326;2023-07-31T04:43:13;4.17;;;2.83;;
21297;SDS011;10808;48.010;11.326;2023-07-31T04:45:41;4.03;;;2.60;;
21297;SDS011;10808;48.010;11.326;2023-07-31T04:48:11;3.72;;;2.70;;
21297;SDS011;10808;48.010;11.326;2023-07-31T04:50:37;4.72;;;2.70;;
21297;SDS011;10808;48.010;11.326;2023-07-31T04:53:03;4.13;;;2.70;;
21297;SDS011;10808;48.010;11.326;2023-07-31T04:55:29;5.93;;;2.70;;
21297;SDS011;10808;48.010;11.326;2023-07-31T04:57:55;5.97;;;2.65;;
21297;SDS011;10808;48.010;11.326;2023-07-31T05:00:21;5.10;;;2.80;;
21297;SDS011;10808;48.010;11.326;2023-07-31T05:02:47;5.72;;;2.70;;
21297;SDS011;10808;48.010;11.326;2023-07-31T05:05:13;5.10;;;2.53;;
21297;SDS011;10808;48.010;11.326;2023-07-31T05:07:39;3.80;;;2.50;;
21297;SDS011;10808;48.010;11.326;2023-07-31T05:10:05;3.33;;;2.38;;
21297;SDS011;10808;48.010;11.326;2023-07-31T05:12:31;4.65;;;2.38;;
21297;SDS011;10808;48.010;11.326;2023-07-31T05:14:57;4.57;;;2.63;;
21297;SDS011;10808;48.010;11.326;2023-07-31T05:17:23;4.30;;;2.50;;
21297;SDS011;10808;48.010;11.326;2023-07-31T05:19:49;3.47;;;2.63;;
21297;SDS011;10808;48.010;11.326;2023-07-31T05:22:15;3.50;;;2.50;;
21297;SDS011;10808;48.010;11.326;2023-07-31T05:24:41;4.93;;;2.57;;
21297;SDS011;10808;48.010;11.326;2023-07-31T05:27:07;5.23;;;2.60;;
21297;SDS011;10808;48.010;11.326;2023-07-31T05:29:35;5.78;;;2.50;;
21297;SDS011;10808;48.010;11.326;2023-07-31T05:32:01;4.30;;;2.50;;
21297;SDS011;10808;48.010;11.326;2023-07-31T05:34:27;6.90;;;2.50;;
21297;SDS011;10808;48.010;11.326;2023-07-31T05:36:53;3.75;;;2.40;;
21297;SDS011;10808;48.010;11.326;2023-07-31T05:39:19;4.50;;;2.50;;
21297;SDS011;10808;48.010;11.326;2023-07-31T05:41:45;5.45;;;2.53;;
21297;SDS011;10808;48.010;11.326;2023-07-31T05:44:12;3.78;;;2.50;;
21297;SDS011;10808;48.010;11.326;2023-07-31T05:46:38;3.33;;;2.30;;
21297;SDS011;10808;48.010;11.326;2023-07-31T05:49:04;3.40;;;2.33;;
21297;SDS011;10808;48.010;11.326;2023-07-31T05:51:30;4.50;;;2.50;;
21297;SDS011;10808;48.010;11.326;2023-07-31T05:53:56;4.95;;;2.40;;
21297;SDS011;10808;48.010;11.326;2023-07-31T05:56:25;7.30;;;2.40;;
21297;SDS011;10808;48.010;11.326;2023-07-31T05:58:52;5.30;;;2.50;;
21297;SDS011;10808;48.010;11.326;2023-07-31T06:01:18;3.70;;;2.15;;
21297;SDS011;10808;48.010;11.326;2023-07-31T06:03:46;3.03;;;2.20;;
21297;SDS011;10808;48.010;11.326;2023-07-31T06:06:12;3.17;;;2.50;;
21297;SDS011;10808;48.010;11.326;2023-07-31T06:08:39;5.07;;;2.30;;
21297;SDS011;10808;48.010;11.326;2023-07-31T06:11:05;4.95;;;2.42;;
21297;SDS011;10808;48.010;11.326;2023-07-31T06:13:32;3.43;;;2.03;;
21297;SDS011;10808;48.010;11.326;2023-07-31T06:15:59;4.63;;;2.20;;
21297;SDS011;10808;48.010;11.326;2023-07-31T06:18:25;3.17;;;2.00;;
21297;SDS011;10808;48.010;11.326;2023-07-31T06:20:51;3.95;;;1.85;;
21297;SDS011;10808;48.010;11.326;2023-07-31T06:23:19;4.30;;;1.92;;
21297;SDS011;10808;48.010;11.326;2023-07-31T06:25:46;5.47;;;1.92;;
21297;SDS011;10808;48.010;11.326;2023-07-31T06:28:12;5.33;;;2.00;;
21297;SDS011;10808;48.010;11.326;2023-07-31T06:30:38;4.28;;;2.15;;
21297;SDS011;10808;48.010;11.326;2023-07-31T06:33:04;3.60;;;2.20;;
21297;SDS011;10808;48.010;11.326;2023-07-31T06:35:30;3.60;;;2.00;;
21297;SDS011;10808;48.010;11.326;2023-07-31T06:37:56;5.00;;;1.95;;
21297;SDS011;10808;48.010;11.326;2023-07-31T06:40:22;3.35;;;1.77;;
21297;SDS011;10808;48.010;11.326;2023-07-31T06:42:48;3.38;;;1.90;;
21297;SDS011;10808;48.010;11.326;2023-07-31T06:45:14;2.70;;;1.80;;
21297;SDS011;10808;48.010;11.326;2023-07-31T06:47:40;3.53;;;2.00;;
21297;SDS011;10808;48.010;11.326;2023-07-31T06:50:07;3.90;;;1.83;;
21297;SDS011;10808;48.010;11.326;2023-07-31T06:52:34;4.68;;;2.13;;
21297;SDS011;10808;48.010;11.326;2023-07-31T06:55:00;3.20;;;2.00;;
21297;SDS011;10808;48.010;11.326;2023-07-31T06:57:29;3.92;;;2.08;;
21297;SDS011;10808;48.010;11.326;2023-07-31T06:59:55;3.75;;;2.20;;
21297;SDS011;10808;48.010;11.326;2023-07-31T07:02:21;5.20;;;2.13;;
21297;SDS011;10808;48.010;11.326;2023-07-31T07:04:48;3.28;;;2.00;;
21297;SDS011;10808;48.010;11.326;2023-07-31T07:07:15;5.65;;;2.10;;
21297;SDS011;10808;48.010;11.326;2023-07-31T07:09:41;3.92;;;2.58;;
21297;SDS011;10808;48.010;11.326;2023-07-31T07:12:07;3.40;;;1.85;;
21297;SDS011;10808;48.010;11.326;2023-07-31T07:14:33;4.40;;;2.10;;
21297;SDS011;10808;48.010;11.326;2023-07-31T07:17:00;2.53;;;2.00;;
21297;SDS011;10808;48.010;11.326;2023-07-31T07:19:26;4.60;;;2.30;;
21297;SDS011;10808;48.010;11.326;2023-07-31T07:21:52;4.20;;;2.35;;
21297;SDS011;10808;48.010;11.326;2023-07-31T07:24:18;4.45;;;2.03;;
21297;SDS011;10808;48.010;11.326;2023-07-31T07:26:45;3.20;;;2.10;;
21297;SDS011;10808;48.010;11.326;2023-07-31T07:29:11;2.78;;;2.05;;
21297;SDS011;10808;48.010;11.326;2023-07-31T07:31:37;5.95;;;2.38;;
21297;SDS011;10808;48.010;11.326;2023-07-31T07:34:03;5.20;;;2.35;;
21297;SDS011;10808;48.010;11.326;2023-07-31T07:36:29;4.90;;;2.15;;
21297;SDS011;10808;48.010;11.326;2023-07-31T07:38:55;4.25;;;2.35;;
21297;SDS011;10808;48.010;11.326;2023-07-31T07:41:21;5.75;;;2.72;;
21297;SDS011;10808;48.010;11.326;2023-07-31T07:43:47;5.65;;;2.10;;
21297;SDS011;10808;48.010;11.326;2023-07-31T07:46:13;4.55;;;2.22;;
21297;SDS011;10808;48.010;11.326;2023-07-31T07:48:39;2.67;;;1.90;;
21297;SDS011;10808;48.010;11.326;2023-07-31T07:51:05;3.35;;;1.95;;
21297;SDS011;10808;48.010;11.326;2023-07-31T07:53:31;3.03;;;2.05;;
21297;SDS011;10808;48.010;11.326;2023-07-31T07:55:57;3.65;;;2.25;;
21297;SDS011;10808;48.010;11.326;2023-07-31T07:58:23;3.72;;;1.90;;
21297;SDS011;10808;48.010;11.326;2023-07-31T08:00:52;5.32;;;2.38;;
21297;SDS011;10808;48.010;11.326;2023-07-31T08:03:18;3.10;;;2.03;;
21297;SDS011;10808;48.010;11.326;2023-07-31T08:05:44;2.40;;;1.90;;
21297;SDS011;10808;48.010;11.326;2023-07-31T08:08:16;4.03;;;2.28;;
21297;SDS011;10808;48.010;11.326;2023-07-31T08:10:42;2.85;;;1.80;;
21297;SDS011;10808;48.010;11.326;2023-07-31T08:13:09;3.03;;;1.92;;
21297;SDS011;10808;48.010;11.326;2023-07-31T08:15:36;3.97;;;2.00;;
21297;SDS011;10808;48.010;11.326;2023-07-31T08:18:02;3.63;;;2.30;;
21297;SDS011;10808;48.010;11.326;2023-07-31T08:20:28;18.38;;;2.97;;
21297;SDS011;10808;48.010;11.326;2023-07-31T08:22:54;18.70;;;2.75;;
21297;SDS011;10808;48.010;11.326;2023-07-31T08:25:20;24.65;;;3.15;;
21297;SDS011;10808;48.010;11.326;2023-07-31T08:27:46;55.75;;;4.43;;
21297;SDS011;10808;48.010;11.326;2023-07-31T08:30:12;75.70;;;5.85;;
21297;SDS011;10808;48.010;11.326;2023-07-31T08:32:38;89.18;;;7.28;;
21297;SDS011;10808;48.010;11.326;2023-07-31T08:35:04;12.30;;;2.17;;
21297;SDS011;10808;48.010;11.326;2023-07-31T08:37:30;3.35;;;1.73;;
21297;SDS011;10808;48.010;11.326;2023-07-31T08:39:56;2.78;;;1.90;;
21297;SDS011;10808;48.010;11.326;2023-07-31T08:42:23;2.75;;;2.00;;
21297;SDS011;10808;48.010;11.326;2023-07-31T08:44:50;3.03;;;1.80;;
21297;SDS011;10808;48.010;11.326;2023-07-31T08:47:18;4.43;;;1.73;;
21297;SDS011;10808;48.010;11.326;2023-07-31T08:49:45;3.38;;;1.90;;
21297;SDS011;10808;48.010;11.326;2023-07-31T08:52:12;5.43;;;2.17;;
21297;SDS011;10808;48.010;11.326;2023-07-31T08:54:38;3.00;;;1.60;;
21297;SDS011;10808;48.010;11.326;2023-07-31T08:57:05;3.95;;;2.05;;
21297;SDS011;10808;48.010;11.326;2023-07-31T08:59:32;3.80;;;1.70;;
21297;SDS011;10808;48.010;11.326;2023-07-31T09:02:05;2.23;;;1.67;;
21297;SDS011;10808;48.010;11.326;2023-07-31T09:04:33;3.90;;;1.80;;
21297;SDS011;10808;48.010;11.326;2023-07-31T09:07:02;5.60;;;2.00;;
21297;SDS011;10808;48.010;11.326;2023-07-31T09:09:30;4.78;;;2.00;;
21297;SDS011;10808;48.010;11.326;2023-07-31T09:11:59;3.65;;;1.90;;
21297;SDS011;10808;48.010;11.326;2023-07-31T09:14:26;3.85;;;1.95;;
21297;SDS011;10808;48.010;11.326;2023-07-31T09:16:56;3.33;;;1.83;;
21297;SDS011;10808;48.010;11.326;2023-07-31T09:19:29;3.30;;;2.00;;
21297;SDS011;10808;48.010;11.326;2023-07-31T09:21:59;32.95;;;22.80;;
21297;SDS011;10808;48.010;11.326;2023-07-31T09:24:26;4.22;;;2.50;;
21297;SDS011;10808;48.010;11.326;2023-07-31T09:26:54;3.83;;;2.00;;
21297;SDS011;10808;48.010;11.326;2023-07-31T09:29:27;3.40;;;2.10;;
21297;SDS011;10808;48.010;11.326;2023-07-31T09:31:55;3.78;;;2.05;;
21297;SDS011;10808;48.010;11.326;2023-07-31T09:34:27;5.35;;;2.40;;
21297;SDS011;10808;48.010;11.326;2023-07-31T09:37:04;3.15;;;2.17;;
21297;SDS011;10808;48.010;11.326;2023-07-31T09:39:30;5.68;;;2.15;;
21297;SDS011;10808;48.010;11.326;2023-07-31T09:41:57;4.05;;;2.47;;
21297;SDS011;10808;48.010;11.326;2023-07-31T09:44:38;5.25;;;2.47;;
21297;SDS011;10808;48.010;11.326;2023-07-31T09:47:06;3.47;;;2.30;;
21297;SDS011;10808;48.010;11.326;2023-07-31T09:49:45;3.28;;;2.30;;
21297;SDS011;10808;48.010;11.326;2023-07-31T09:52:12;5.78;;;2.20;;
21297;SDS011;10808;48.010;11.326;2023-07-31T09:54:39;4.35;;;2.28;;
21297;SDS011;10808;48.010;11.326;2023-07-31T09:57:05;4.57;;;2.13;;
21297;SDS011;10808;48.010;11.326;2023-07-31T09:59:31;5.13;;;2.13;;
21297;SDS011;10808;48.010;11.326;2023-07-31T10:01:57;6.43;;;2.17;;
21297;SDS011;10808;48.010;11.326;2023-07-31T10:04:25;4.72;;;2.30;;
21297;SDS011;10808;48.010;11.326;2023-07-31T10:06:53;3.40;;;1.90;;
21297;SDS011;10808;48.010;11.326;2023-07-31T10:09:19;3.63;;;2.15;;
21297;SDS011;10808;48.010;11.326;2023-07-31T10:11:51;4.78;;;2.40;;
21297;SDS011;10808;48.010;11.326;2023-07-31T10:14:24;3.30;;;2.13;;
21297;SDS011;10808;48.010;11.326;2023-07-31T10:16:52;4.95;;;2.42;;
21297;SDS011;10808;48.010;11.326;2023-07-31T10:19:19;3.63;;;2.20;;
21297;SDS011;10808;48.010;11.326;2023-07-31T10:21:46;3.28;;;1.92;;
21297;SDS011;10808;48.010;11.326;2023-07-31T10:24:14;5.15;;;2.38;;
21297;SDS011;10808;48.010;11.326;2023-07-31T10:26:41;4.10;;;2.20;;
21297;SDS011;10808;48.010;11.326;2023-07-31T10:29:11;3.83;;;2.20;;
21297;SDS011;10808;48.010;11.326;2023-07-31T10:31:37;2.80;;;2.17;;
21297;SDS011;10808;48.010;11.326;2023-07-31T10:34:04;6.00;;;2.10;;
21297;SDS011;10808;48.010;11.326;2023-07-31T10:36:30;4.93;;;2.10;;
21297;SDS011;10808;48.010;11.326;2023-07-31T10:38:56;3.60;;;2.15;;
21297;SDS011;10808;48.010;11.326;2023-07-31T10:41:31;3.30;;;1.92;;
21297;SDS011;10808;48.010;11.326;2023-07-31T10:43:58;2.70;;;1.95;;
21297;SDS011;10808;48.010;11.326;2023-07-31T10:46:28;3.38;;;2.05;;
21297;SDS011;10808;48.010;11.326;2023-07-31T10:48:58;5.10;;;2.47;;
21297;SDS011;10808;48.010;11.326;2023-07-31T10:51:35;3.42;;;2.05;;
21297;SDS011;10808;48.010;11.326;2023-07-31T10:54:14;3.33;;;2.20;;
21297;SDS011;10808;48.010;11.326;2023-07-31T10:56:46;3.83;;;2.30;;
21297;SDS011;10808;48.010;11.326;2023-07-31T10:59:17;3.42;;;2.13;;
21297;SDS011;10808;48.010;11.326;2023-07-31T11:01:54;3.60;;;1.95;;
21297;SDS011;10808;48.010;11.326;2023-07-31T11:04:27;3.40;;;2.08;;
21297;SDS011;10808;48.010;11.326;2023-07-31T11:06:58;2.85;;;2.00;;
21297;SDS011;10808;48.010;11.326;2023-07-31T11:09:29;3.50;;;2.08;;
21297;SDS011;10808;48.010;11.326;2023-07-31T11:11:57;2.80;;;1.90;;
21297;SDS011;10808;48.010;11.326;2023-07-31T11:14:24;3.80;;;2.15;;
21297;SDS011;10808;48.010;11.326;2023-07-31T11:16:50;2.75;;;1.88;;
21297;SDS011;10808;48.010;11.326;2023-07-31T11:19:24;4.35;;;2.10;;
21297;SDS011;10808;48.010;11.326;2023-07-31T11:21:51;2.97;;;1.95;;
21297;SDS011;10808;48.010;11.326;2023-07-31T11:24:21;3.40;;;2.20;;
21297;SDS011;10808;48.010;11.326;2023-07-31T11:27:07;3.70;;;2.20;;
21297;SDS011;10808;48.010;11.326;2023-07-31T11:29:33;3.67;;;2.20;;
21297;SDS011;10808;48.010;11.326;2023-07-31T11:31:59;2.45;;;1.80;;
21297;SDS011;10808;48.010;11.326;2023-07-31T11:34:25;3.75;;;2.03;;
21297;SDS011;10808;48.010;11.326;2023-07-31T11:36:57;3.50;;;1.98;;
21297;SDS011;10808;48.010;11.326;2023-07-31T11:39:24;3.67;;;2.10;;
21297;SDS011;10808;48.010;11.326;2023-07-31T11:41:50;4.25;;;2.00;;
21297;SDS011;10808;48.010;11.326;2023-07-31T11:44:16;5.00;;;2.25;;
21297;SDS011;10808;48.010;11.326;2023-07-31T11:46:42;3.10;;;2.10;;
21297;SDS011;10808;48.010;11.326;2023-07-31T11:49:09;3.38;;;1.98;;
21297;SDS011;10808;48.010;11.326;2023-07-31T11:51:35;2.78;;;1.90;;
21297;SDS011;10808;48.010;11.326;2023-07-31T11:54:01;4.25;;;2.10;;
21297;SDS011;10808;48.010;11.326;2023-07-31T11:56:28;2.80;;;2.10;;
21297;SDS011;10808;48.010;11.326;2023-07-31T11:58:55;3.28;;;1.95;;
21297;SDS011;10808;48.010;11.326;2023-07-31T12:01:24;4.60;;;2.00;;
21297;SDS011;10808;48.010;11.326;2023-07-31T12:03:51;4.15;;;2.10;;
21297;SDS011;10808;48.010;11.326;2023-07-31T12:06:18;4.95;;;2.28;;
21297;SDS011;10808;48.010;11.326;2023-07-31T12:08:46;3.33;;;2.08;;
21297;SDS011;10808;48.010;11.326;2023-07-31T12:11:13;7.80;;;2.10;;
21297;SDS011;10808;48.010;11.326;2023-07-31T12:13:40;4.72;;;2.20;;
21297;SDS011;10808;48.010;11.326;2023-07-31T12:16:06;3.55;;;2.10;;
21297;SDS011;10808;48.010;11.326;2023-07-31T12:18:36;3.80;;;2.10;;
21297;SDS011;10808;48.010;11.326;2023-07-31T12:21:06;4.77;;;2.00;;
21297;SDS011;10808;48.010;11.326;2023-07-31T12:23:34;4.25;;;1.80;;
21297;SDS011;10808;48.010;11.326;2023-07-31T12:26:14;2.55;;;1.95;;
21297;SDS011;10808;48.010;11.326;2023-07-31T12:28:42;2.97;;;2.00;;
21297;SDS011;10808;48.010;11.326;2023-07-31T12:31:13;5.05;;;2.00;;
21297;SDS011;10808;48.010;11.326;2023-07-31T12:33:45;3.40;;;1.92;;
21297;SDS011;10808;48.010;11.326;2023-07-31T12:36:14;2.80;;;1.98;;
21297;SDS011;10808;48.010;11.326;2023-07-31T12:38:41;2.42;;;1.77;;
21297;SDS011;10808;48.010;11.326;2023-07-31T12:41:10;5.05;;;1.88;;
21297;SDS011;10808;48.010;11.326;2023-07-31T12:43:37;3.95;;;2.08;;
21297;SDS011;10808;48.010;11.326;2023-07-31T12:46:04;4.50;;;2.00;;
21297;SDS011;10808;48.010;11.326;2023-07-31T12:48:31;3.10;;;2.00;;
21297;SDS011;10808;48.010;11.326;2023-07-31T12:50:58;3.88;;;2.13;;
21297;SDS011;10808;48.010;11.326;2023-07-31T12:53:24;2.58;;;1.90;;
21297;SDS011;10808;48.010;11.326;2023-07-31T12:55:50;2.75;;;1.80;;
21297;SDS011;10808;48.010;11.326;2023-07-31T12:58:16;4.57;;;2.00;;
21297;SDS011;10808;48.010;11.326;2023-07-31T13:00:42;3.10;;;1.95;;
21297;SDS011;10808;48.010;11.326;2023-07-31T13:03:08;2.47;;;1.90;;
21297;SDS011;10808;48.010;11.326;2023-07-31T13:05:34;4.07;;;1.98;;
21297;SDS011;10808;48.010;11.326;2023-07-31T13:08:00;3.70;;;2.15;;
21297;SDS011;10808;48.010;11.326;2023-07-31T13:10:27;4.00;;;2.17;;
21297;SDS011;10808;48.010;11.326;2023-07-31T13:12:54;3.55;;;2.00;;
21297;SDS011;10808;48.010;11.326;2023-07-31T13:15:20;3.17;;;1.98;;
21297;SDS011;10808;48.010;11.326;2023-07-31T13:17:46;2.42;;;1.67;;
21297;SDS011;10808;48.010;11.326;2023-07-31T13:20:12;2.45;;;1.70;;
21297;SDS011;10808;48.010;11.326;2023-07-31T13:22:38;1.92;;;1.60;;
21297;SDS011;10808;48.010;11.326;2023-07-31T13:25:05;4.13;;;1.98;;
21297;SDS011;10808;48.010;11.326;2023-07-31T13:27:31;2.95;;;1.80;;
21297;SDS011;10808;48.010;11.326;2023-07-31T13:29:58;2.40;;;1.90;;
21297;SDS011;10808;48.010;11.326;2023-07-31T13:32:24;5.68;;;1.85;;
21297;SDS011;10808;48.010;11.326;2023-07-31T13:34:51;5.00;;;1.95;;
21297;SDS011;10808;48.010;11.326;2023-07-31T13:37:17;5.88;;;2.00;;
21297;SDS011;10808;48.010;11.326;2023-07-31T13:39:43;3.33;;;2.00;;
21297;SDS011;10808;48.010;11.326;2023-07-31T13:42:09;2.77;;;2.00;;
21297;SDS011;10808;48.010;11.326;2023-07-31T13:44:37;3.83;;;2.17;;
21297;SDS011;10808;48.010;11.326;2023-07-31T13:47:04;5.10;;;2.30;;
21297;SDS011;10808;48.010;11.326;2023-07-31T13:49:30;4.07;;;2.13;;
21297;SDS011;10808;48.010;11.326;2023-07-31T13:51:57;4.32;;;1.98;;
21297;SDS011;10808;48.010;11.326;2023-07-31T13:54:23;1.70;;;1.30;;
21297;SDS011;10808;48.010;11.326;2023-07-31T13:56:49;2.00;;;1.48;;
21297;SDS011;10808;48.010;11.326;2023-07-31T13:59:15;4.25;;;1.50;;
21297;SDS011;10808;48.010;11.326;2023-07-31T14:01:42;3.63;;;1.75;;
21297;SDS011;10808;48.010;11.326;2023-07-31T14:04:15;2.00;;;1.60;;
21297;SDS011;10808;48.010;11.326;2023-07-31T14:06:41;2.50;;;1.60;;
21297;SDS011;10808;48.010;11.326;2023-07-31T14:09:07;2.28;;;1.60;;
21297;SDS011;10808;48.010;11.326;2023-07-31T14:11:33;4.32;;;1.92;;
21297;SDS011;10808;48.010;11.326;2023-07-31T14:13:59;2.38;;;1.67;;
21297;SDS011;10808;48.010;11.326;2023-07-31T14:16:27;2.28;;;1.83;;
21297;SDS011;10808;48.010;11.326;2023-07-31T14:18:53;3.95;;;1.80;;
21297;SDS011;10808;48.010;11.326;2023-07-31T14:21:20;4.90;;;2.13;;
21297;SDS011;10808;48.010;11.326;2023-07-31T14:23:46;2.92;;;1.70;;
21297;SDS011;10808;48.010;11.326;2023-07-31T14:26:12;2.50;;;1.70;;
21297;SDS011;10808;48.010;11.326;2023-07-31T14:28:38;2.95;;;1.70;;
21297;SDS011;10808;48.010;11.326;2023-07-31T14:31:04;3.50;;;1.75;;
21297;SDS011;10808;48.010;11.326;2023-07-31T14:33:32;2.85;;;1.80;;
21297;SDS011;10808;48.010;11.326;2023-07-31T14:35:58;3.30;;;1.80;;
21297;SDS011;10808;48.010;11.326;2023-07-31T14:38:24;2.35;;;1.63;;
21297;SDS011;10808;48.010;11.326;2023-07-31T14:40:51;1.80;;;1.60;;